Dugger, IN

3:48 AM EDT on October 24, 2014 (GMT -0400)
Terre Haute International-Hulman | Change Station
CLOSE
Current Station
Airport
Location: Terre Haute,
Elevation: 584 ft
Nearby Weather Stations

Elev 584 ft 39.45 °N, 87.31 °W | Updated 55 minutes ago

Partly Cloudy
Partly Cloudy
42 °F
Feels Like 42 °F
N
0
Wind Variable Wind from North

Today
High -- | Low -- °F
--% Chance of Precip.
Yesterday
High -- | Low -- °F
Precip. -- in
8:07 AM 6:57 PM
New Moon, 0% visible
Pressure 30.12 in
Visibility 10.0 miles
Clouds Clear
Dew Point 40 °F
Humidity 92%
Rainfall 0.00 in
Snow Depth Not available.
UV 0 out of 12
Pollen .80 out of 12
Air Quality Not available.
Flu Activity Not available.
METAR KHUF 240653Z 00000KT 10SM CLR 06/04 A3011 RMK AO2 SLP197 T00560044

More Conditions Fewer Conditions

Pressure 30.12 in
Visibility 10.0 miles
Clouds Clear
Dew Point 40 °F
Humidity 92%
Rainfall 0.00 in
Snow Depth Not available.
UV 0 out of 12
Pollen .80 out of 12
Air Quality Not available.
Flu Activity Not available.
METAR KHUF 240653Z 00000KT 10SM CLR 06/04 A3011 RMK AO2 SLP197 T00560044

More Conditions Fewer Conditions

10-Day Weather Forecast

Almanac

Astronomy

Oct. 24, 2014 Rise Set
Actual Time 8:07 AM EDT 6:57 PM EDT
Civil Twilight 7:40 AM EDT 7:25 PM EDT
Nautical Twilight 7:09 AM EDT 7:56 PM EDT
Astronomical Twilight 6:38 AM EDT 8:27 PM EDT
Moon 8:46 AM EDT 7:38 PM EDT
Length of Visible Light 11h 44m
Length of Day
10h 50m
Tomorrow will be 2m 21s shorter.
New Moon, 0% of the Moon is Illuminated
Today
New Moon
Oct 30
First Quarter
Nov 6
Full
Nov 14
Last Quarter
Nov 22
New

Today's Extremes

State Highs State Lows

Community

WunderPhotos

Upload Photos

1,764,512 photos uploaded!

WunderBlogs® & News

Nearby

Snow Depth

Station Depth Elevation
No new snow has been reported.

Earthquake Activity

City Distance Mag. Time & Date
No recent earthquake activity has been reported nearby.
Minimum magnitude displayed is 2.5.

Coastal Water Temperatures

Place Temperature
No Stations Reporting

Nearby Weather Stations